createdAt,value
2018-11-25T00:00:12.081Z,91.74
2018-11-25T00:05:09.707Z,91.18
2018-11-25T00:10:07.271Z,91.24
2018-11-25T00:15:06.463Z,92.36
2018-11-25T00:20:06.588Z,91.87
2018-11-25T00:25:04.949Z,91.70
2018-11-25T00:30:09.071Z,91.69
2018-11-25T00:35:08.051Z,91.93
2018-11-25T00:40:07.351Z,92.00
2018-11-25T00:45:07.525Z,92.30
2018-11-25T00:50:07.140Z,92.06
2018-11-25T00:55:05.708Z,92.24
2018-11-25T01:00:10.306Z,92.10
2018-11-25T01:05:10.567Z,92.23
2018-11-25T01:10:10.596Z,92.82
2018-11-25T01:15:10.184Z,92.98
2018-11-25T01:20:12.004Z,91.78
2018-11-25T01:25:10.235Z,91.52
2018-11-25T01:30:13.117Z,91.41
2018-11-25T01:35:11.492Z,91.71
2018-11-25T01:40:12.925Z,91.90
2018-11-25T01:45:11.442Z,91.40
2018-11-25T01:50:10.127Z,92.56
2018-11-25T01:55:09.149Z,91.45
2018-11-25T02:00:12.402Z,91.86
2018-11-25T02:05:09.992Z,92.31
2018-11-25T02:10:16.273Z,91.86
2018-11-25T02:15:14.659Z,92.11
2018-11-25T02:20:18.434Z,91.81
2018-11-25T02:25:15.874Z,92.77
2018-11-25T02:30:16.379Z,92.20
2018-11-25T02:35:15.755Z,91.60
2018-11-25T02:40:14.009Z,92.57
2018-11-25T02:45:19.637Z,92.11
2018-11-25T02:50:31.932Z,92.74
2018-11-25T02:55:29.340Z,93.35
2018-11-25T03:00:26.785Z,92.21
2018-11-25T03:05:24.298Z,93.65
2018-11-25T03:10:21.728Z,93.55
2018-11-25T03:15:19.133Z,93.48
2018-11-25T03:20:17.141Z,92.57
2018-11-25T03:25:17.403Z,93.65
2018-11-25T03:30:17.851Z,93.48
2018-11-25T03:35:15.311Z,92.87
2018-11-25T03:40:13.732Z,93.04
2018-11-25T03:45:12.492Z,93.37
2018-11-25T03:50:10.777Z,93.15
2018-11-25T03:55:09.364Z,92.04
2018-11-25T04:00:26.017Z,91.80
2018-11-25T04:05:23.464Z,92.37
2018-11-25T04:10:20.875Z,91.92
2018-11-25T04:15:18.993Z,91.98
2018-11-25T04:20:17.358Z,92.26
2018-11-25T04:25:14.777Z,92.00
2018-11-25T04:30:17.255Z,90.91
2018-11-25T04:35:14.704Z,91.83
2018-11-25T04:40:14.292Z,91.78
2018-11-25T04:45:14.461Z,92.36
2018-11-25T04:50:19.727Z,91.81
2018-11-25T04:55:17.147Z,90.70
2018-11-25T05:00:15.821Z,91.23
2018-11-25T05:05:14.145Z,90.78
2018-11-25T05:10:14.211Z,91.03
2018-11-25T05:15:14.589Z,90.46
2018-11-25T05:20:12.653Z,91.24
2018-11-25T05:25:12.403Z,91.31
2018-11-25T05:30:12.512Z,91.26
2018-11-25T05:35:11.283Z,92.04
2018-11-25T05:40:14.567Z,91.45
2018-11-25T05:45:14.775Z,90.99
2018-11-25T05:50:14.148Z,91.59
2018-11-25T05:55:12.023Z,91.64
2018-11-25T06:00:16.668Z,91.18
2018-11-25T06:05:14.198Z,91.59
2018-11-25T06:10:12.455Z,92.17
2018-11-25T06:15:11.875Z,91.31
2018-11-25T06:20:11.430Z,92.75
2018-11-25T06:25:10.326Z,91.01
2018-11-25T06:30:13.117Z,92.01
2018-11-25T06:35:11.772Z,92.19
2018-11-25T06:40:12.108Z,92.90
2018-11-25T06:45:16.110Z,92.75
2018-11-25T06:50:13.544Z,92.80
2018-11-25T06:55:11.961Z,93.06
2018-11-25T07:00:18.108Z,93.86
2018-11-25T07:05:15.671Z,93.88
2018-11-25T07:10:17.143Z,94.13
2018-11-25T07:15:15.668Z,94.18
2018-11-25T07:20:15.069Z,94.04
2018-11-25T07:25:15.485Z,93.38
2018-11-25T07:30:21.741Z,93.25
2018-11-25T07:35:19.347Z,92.69
2018-11-25T07:40:19.606Z,92.05
2018-11-25T07:45:29.703Z,93.71
2018-11-25T07:50:19.525Z,93.27
2018-11-25T07:55:19.085Z,92.29
2018-11-25T08:00:18.886Z,92.71
2018-11-25T08:05:18.515Z,91.76
2018-11-25T08:10:16.068Z,91.95
2018-11-25T08:15:14.540Z,92.11
2018-11-25T08:20:13.024Z,91.70
2018-11-25T08:25:11.592Z,91.53
2018-11-25T08:30:13.175Z,92.57
2018-11-25T08:35:11.303Z,91.34
2018-11-25T08:40:25.177Z,91.50
2018-11-25T08:45:22.601Z,92.18
2018-11-25T08:50:20.269Z,91.80
2018-11-25T08:55:25.971Z,92.08
2018-11-25T09:00:25.479Z,92.08
2018-11-25T09:05:22.935Z,92.56
2018-11-25T09:10:21.104Z,92.63
2018-11-25T09:15:20.735Z,92.87
2018-11-25T09:20:19.306Z,92.99
2018-11-25T09:25:18.116Z,92.59
2018-11-25T09:30:19.741Z,92.57
2018-11-25T09:35:17.430Z,91.65
2018-11-25T09:40:18.001Z,91.60
2018-11-25T09:50:32.928Z,91.75
2018-11-25T09:55:30.331Z,92.91
2018-11-25T10:00:33.608Z,93.51
2018-11-25T10:05:31.068Z,94.17
2018-11-25T10:10:28.528Z,93.45
2018-11-25T10:15:27.221Z,93.23
2018-11-25T10:20:25.903Z,93.56
2018-11-25T10:25:23.317Z,93.00
2018-11-25T10:30:26.526Z,93.72
2018-11-25T10:35:24.060Z,93.45
2018-11-25T10:40:23.310Z,93.39
2018-11-25T10:45:24.810Z,93.48
2018-11-25T10:50:22.363Z,93.37
2018-11-25T10:55:20.502Z,93.91
2018-11-25T11:00:34.156Z,93.70
2018-11-25T11:05:37.113Z,93.22
2018-11-25T11:10:34.531Z,93.00
2018-11-25T11:15:37.649Z,92.76
2018-11-25T11:20:35.103Z,92.86
2018-11-25T11:25:32.513Z,93.34
2018-11-25T11:30:32.414Z,93.98
2018-11-25T11:35:29.856Z,92.79
2018-11-25T11:40:27.300Z,93.15
2018-11-25T11:45:24.731Z,92.78
2018-11-25T11:50:22.253Z,93.26
2018-11-25T11:55:19.665Z,94.79
2018-11-25T12:00:27.441Z,94.39
2018-11-25T12:05:24.842Z,93.58
2018-11-25T12:10:22.303Z,93.46
2018-11-25T12:15:30.319Z,93.53
2018-11-25T12:20:22.196Z,92.32
2018-11-25T12:25:19.604Z,92.11
2018-11-25T12:30:22.567Z,91.85
2018-11-25T12:35:20.104Z,92.69
2018-11-25T12:40:21.265Z,92.19
2018-11-25T12:45:20.031Z,91.56
2018-11-25T12:50:20.878Z,91.60
2018-11-25T12:55:22.488Z,91.92
2018-11-25T13:00:33.194Z,91.45
2018-11-25T13:05:35.553Z,90.67
2018-11-25T13:10:33.517Z,91.79
2018-11-25T13:15:32.016Z,92.21
2018-11-25T13:20:29.818Z,92.48
2018-11-25T13:25:28.758Z,92.01
2018-11-25T13:30:34.842Z,92.43
2018-11-25T13:35:37.635Z,91.91
2018-11-25T13:40:36.223Z,91.75
2018-11-25T13:45:34.331Z,92.03
2018-11-25T13:50:31.938Z,92.22
2018-11-25T13:55:31.862Z,92.89
2018-11-25T14:00:47.978Z,92.46
2018-11-25T14:05:52.513Z,92.80
2018-11-25T14:10:45.387Z,92.63
2018-11-25T14:15:45.044Z,92.55
2018-11-25T14:20:42.507Z,92.78
2018-11-25T14:25:40.648Z,92.65
2018-11-25T14:30:40.660Z,92.74
2018-11-25T14:35:38.319Z,93.11
2018-11-25T14:40:35.988Z,92.88
2018-11-25T14:45:35.834Z,93.16
2018-11-25T14:50:35.056Z,93.31
2018-11-25T14:55:33.375Z,94.33
2018-11-25T15:00:39.271Z,94.67
2018-11-25T15:05:51.082Z,95.08
2018-11-25T15:10:52.984Z,94.81
2018-11-25T15:15:52.876Z,94.75
2018-11-25T15:20:50.559Z,94.78
2018-11-25T15:25:51.464Z,95.09
2018-11-25T15:30:50.220Z,94.98
2018-11-25T15:35:47.760Z,95.00
2018-11-25T15:40:45.175Z,94.86
2018-11-25T15:45:42.658Z,94.83
2018-11-25T15:50:40.108Z,94.57
2018-11-25T15:55:37.577Z,94.74
2018-11-25T16:00:36.205Z,95.26
2018-11-25T16:05:33.588Z,94.99
2018-11-25T16:10:30.966Z,94.46
2018-11-25T16:15:28.603Z,93.44
2018-11-25T16:20:27.093Z,94.46
2018-11-25T16:25:26.952Z,93.84
2018-11-25T16:30:24.889Z,94.16
2018-11-25T16:35:22.316Z,93.98
2018-11-25T16:40:19.844Z,93.73
2018-11-25T16:45:17.310Z,93.73
2018-11-25T16:50:24.469Z,93.42
2018-11-25T16:55:14.411Z,94.24
2018-11-25T17:00:15.210Z,93.50
2018-11-25T17:05:17.195Z,93.34
2018-11-25T17:10:14.688Z,93.71
2018-11-25T17:15:15.686Z,93.61
2018-11-25T17:20:13.128Z,93.16
2018-11-25T17:25:12.024Z,93.69
2018-11-25T17:30:14.712Z,93.16
2018-11-25T17:35:16.747Z,93.45
2018-11-25T17:40:14.200Z,93.92
2018-11-25T17:45:12.581Z,94.15
2018-11-25T17:50:41.110Z,93.90
2018-11-25T17:55:38.563Z,93.89
2018-11-25T18:00:46.263Z,93.92
2018-11-25T18:05:43.712Z,93.43
2018-11-25T18:10:41.103Z,93.67
2018-11-25T18:15:38.514Z,93.86
2018-11-25T18:20:39.623Z,93.64
2018-11-25T18:25:37.127Z,93.95
2018-11-25T18:30:35.736Z,93.67
2018-11-25T18:35:33.143Z,93.69
2018-11-25T18:40:30.543Z,92.83
2018-11-25T18:45:27.977Z,93.51
2018-11-25T18:50:25.377Z,93.07
2018-11-25T18:55:22.096Z,93.07
2018-11-25T19:00:33.819Z,92.73
2018-11-25T19:05:31.293Z,93.02
2018-11-25T19:10:28.792Z,93.02
2018-11-25T19:15:26.232Z,93.34
2018-11-25T19:20:25.895Z,92.75
2018-11-25T19:25:23.280Z,93.04
2018-11-25T19:30:26.785Z,92.76
2018-11-25T19:35:23.900Z,93.12
2018-11-25T19:40:23.864Z,93.23
2018-11-25T19:45:23.386Z,93.27
2018-11-25T19:50:27.404Z,92.70
2018-11-25T19:55:24.812Z,92.48
2018-11-25T20:00:25.212Z,92.26
2018-11-25T20:05:22.660Z,92.20
2018-11-25T20:10:21.276Z,91.96
2018-11-25T20:15:19.381Z,92.17
2018-11-25T20:20:18.796Z,91.62
2018-11-25T20:25:16.683Z,91.68
2018-11-25T20:30:16.394Z,91.46
2018-11-25T20:35:13.840Z,91.42
2018-11-25T20:40:11.222Z,91.44
2018-11-25T20:45:19.851Z,90.64
2018-11-25T20:50:17.299Z,90.72
2018-11-25T20:55:14.687Z,91.28
2018-11-25T21:00:15.290Z,91.40
2018-11-25T21:05:13.779Z,91.34
2018-11-25T21:10:13.059Z,91.06
2018-11-25T21:15:10.911Z,90.89
2018-11-25T21:20:09.720Z,91.03
2018-11-25T21:25:14.960Z,91.00
2018-11-25T21:30:16.796Z,91.23
2018-11-25T21:35:14.217Z,91.20
2018-11-25T21:40:17.672Z,91.03
2018-11-25T21:45:15.946Z,90.99
2018-11-25T21:50:17.592Z,91.15
2018-11-25T21:55:15.964Z,90.87
2018-11-25T22:00:15.601Z,90.82
2018-11-25T22:05:13.431Z,91.05
2018-11-25T22:10:11.939Z,91.67
2018-11-25T22:15:10.472Z,91.53
2018-11-25T22:20:09.179Z,91.49
2018-11-25T22:25:09.504Z,91.19
2018-11-25T22:30:12.543Z,91.27
2018-11-25T22:35:11.213Z,91.23
2018-11-25T22:40:10.632Z,91.24
2018-11-25T22:45:15.932Z,91.25
2018-11-25T22:50:15.174Z,90.83
2018-11-25T22:55:15.838Z,91.06
2018-11-25T23:00:23.348Z,91.19
2018-11-25T23:05:32.195Z,91.01
2018-11-25T23:10:29.604Z,90.88
2018-11-25T23:15:27.090Z,91.15
2018-11-25T23:20:24.499Z,91.16
2018-11-25T23:25:21.875Z,91.23
2018-11-25T23:30:20.627Z,91.70
2018-11-25T23:35:21.542Z,91.19
2018-11-25T23:40:18.995Z,91.06
2018-11-25T23:45:17.119Z,91.13
2018-11-25T23:50:14.992Z,90.92
2018-11-25T23:55:13.238Z,91.01
